createdAt,value
2022-11-25T00:00:23.178Z,3.47
2022-11-25T00:02:51.281Z,4.33
2022-11-25T00:05:20.675Z,4.17
2022-11-25T00:07:48.643Z,3.93
2022-11-25T00:10:16.646Z,3.40
2022-11-25T00:12:44.510Z,4.47
2022-11-25T00:15:12.520Z,3.50
2022-11-25T00:17:40.386Z,3.50
2022-11-25T00:20:09.448Z,3.83
2022-11-25T00:22:38.753Z,3.70
2022-11-25T00:25:07.490Z,3.93
2022-11-25T00:27:35.398Z,3.53
2022-11-25T00:30:03.308Z,2.53
2022-11-25T00:32:31.174Z,2.20
2022-11-25T00:34:59.019Z,2.50
2022-11-25T00:37:26.969Z,1.97
2022-11-25T00:39:56.259Z,3.30
2022-11-25T00:42:41.659Z,2.60
2022-11-25T00:45:10.435Z,3.20
2022-11-25T00:47:38.287Z,3.17
2022-11-25T00:50:07.504Z,3.40
2022-11-25T00:52:37.093Z,3.27
2022-11-25T00:55:07.045Z,2.73
2022-11-25T00:57:34.947Z,2.80
2022-11-25T01:00:02.810Z,3.80
2022-11-25T01:02:30.765Z,3.00
2022-11-25T01:04:58.847Z,2.77
2022-11-25T01:07:26.941Z,3.17
2022-11-25T01:09:54.814Z,2.50
2022-11-25T01:12:24.109Z,2.70
2022-11-25T01:14:52.044Z,3.07
2022-11-25T01:17:19.943Z,3.63
2022-11-25T01:19:48.972Z,2.77
2022-11-25T01:22:16.883Z,3.60
2022-11-25T01:24:44.711Z,3.23
2022-11-25T01:27:12.580Z,3.47
2022-11-25T01:29:43.040Z,3.00
2022-11-25T01:32:10.867Z,2.97
2022-11-25T01:34:39.029Z,3.07
2022-11-25T01:37:06.939Z,2.63
2022-11-25T01:39:34.794Z,3.40
2022-11-25T01:42:02.711Z,2.93
2022-11-25T01:44:30.759Z,3.40
2022-11-25T01:47:02.296Z,3.60
2022-11-25T01:49:36.372Z,2.83
2022-11-25T01:52:07.735Z,3.60
2022-11-25T01:54:37.850Z,3.00
2022-11-25T01:57:07.778Z,3.07
2022-11-25T01:59:36.358Z,3.20
2022-11-25T02:02:05.720Z,2.80
2022-11-25T02:04:35.158Z,3.50
2022-11-25T02:07:05.370Z,3.20
2022-11-25T02:09:33.295Z,2.80
2022-11-25T02:12:01.153Z,2.80
2022-11-25T02:14:29.059Z,2.83
2022-11-25T02:16:56.923Z,3.10
2022-11-25T02:19:37.869Z,2.77
2022-11-25T02:22:06.050Z,2.90
2022-11-25T02:24:36.126Z,2.20
2022-11-25T02:27:05.468Z,3.00
2022-11-25T02:29:33.521Z,2.73
2022-11-25T02:32:01.401Z,2.67
2022-11-25T02:34:29.299Z,2.77
2022-11-25T02:36:57.139Z,3.20
2022-11-25T02:39:25.042Z,3.87
2022-11-25T02:41:54.149Z,1.70
2022-11-25T02:44:23.454Z,2.23
2022-11-25T02:46:51.340Z,2.00
2022-11-25T02:49:19.202Z,1.87
2022-11-25T02:51:47.194Z,2.20
2022-11-25T02:54:15.586Z,1.83
2022-11-25T02:56:43.446Z,1.60
2022-11-25T02:59:11.391Z,1.90
2022-11-25T03:01:40.719Z,1.50
2022-11-25T03:04:08.672Z,1.33
2022-11-25T03:06:36.541Z,2.70
2022-11-25T03:09:04.436Z,3.10
2022-11-25T03:11:49.766Z,3.03
2022-11-25T03:14:18.003Z,3.77
2022-11-25T03:16:47.444Z,2.30
2022-11-25T03:19:15.478Z,2.73
2022-11-25T03:21:43.340Z,3.27
2022-11-25T03:24:11.385Z,3.53
2022-11-25T03:26:39.323Z,2.23
2022-11-25T03:29:07.652Z,2.63
2022-11-25T03:31:35.559Z,3.50
2022-11-25T03:34:04.878Z,3.70
2022-11-25T03:36:32.755Z,3.93
2022-11-25T03:39:00.660Z,4.00
2022-11-25T03:41:28.554Z,3.37
2022-11-25T03:43:56.512Z,2.83
2022-11-25T03:46:24.541Z,2.83
2022-11-25T03:48:52.430Z,3.40
2022-11-25T03:51:21.667Z,3.90
2022-11-25T03:53:49.584Z,4.20
2022-11-25T03:56:17.475Z,3.93
2022-11-25T03:58:45.335Z,3.23
2022-11-25T04:01:13.266Z,4.00
2022-11-25T04:03:41.208Z,3.43
2022-11-25T04:06:09.198Z,2.53
2022-11-25T04:08:38.443Z,2.73
2022-11-25T04:11:06.560Z,1.90
2022-11-25T04:13:33.414Z,1.60
2022-11-25T04:16:01.326Z,2.40
2022-11-25T04:18:29.227Z,2.00
2022-11-25T04:20:57.120Z,2.30
2022-11-25T04:23:25.100Z,2.67
2022-11-25T04:25:54.327Z,3.13
2022-11-25T04:28:23.574Z,3.43
2022-11-25T04:30:51.546Z,4.03
2022-11-25T04:33:19.598Z,4.47
2022-11-25T04:35:48.207Z,4.17
2022-11-25T04:38:16.130Z,2.70
2022-11-25T04:40:44.028Z,2.67
2022-11-25T04:43:13.279Z,2.77
2022-11-25T04:48:29.035Z,3.17
2022-11-25T04:50:56.903Z,3.47
2022-11-25T04:53:24.780Z,3.00
2022-11-25T04:55:52.682Z,2.73
2022-11-25T04:58:36.057Z,3.40
2022-11-25T05:01:04.023Z,2.87
2022-11-25T05:03:31.955Z,3.27
2022-11-25T05:05:59.866Z,2.23
2022-11-25T05:08:27.748Z,3.40
2022-11-25T05:10:55.662Z,3.10
2022-11-25T05:13:24.937Z,3.13
2022-11-25T05:15:52.908Z,3.57
2022-11-25T05:18:20.836Z,4.27
2022-11-25T05:20:48.756Z,3.70
2022-11-25T05:23:16.692Z,3.87
2022-11-25T05:25:44.547Z,4.07
2022-11-25T05:28:12.453Z,3.73
2022-11-25T05:30:42.580Z,2.90
2022-11-25T05:33:10.496Z,2.53
2022-11-25T05:35:38.429Z,3.33
2022-11-25T05:38:06.334Z,3.13
2022-11-25T05:40:34.228Z,3.83
2022-11-25T05:43:03.016Z,3.10
2022-11-25T05:45:30.924Z,4.07
2022-11-25T05:48:00.167Z,2.77
2022-11-25T05:50:28.182Z,3.10
2022-11-25T05:52:56.085Z,2.10
2022-11-25T05:55:23.999Z,2.00
2022-11-25T05:57:51.978Z,2.40
2022-11-25T06:00:26.282Z,2.87
2022-11-25T06:02:54.891Z,2.67
2022-11-25T06:05:24.236Z,2.73
2022-11-25T06:07:52.213Z,2.90
2022-11-25T06:10:20.388Z,2.33
2022-11-25T06:12:48.818Z,2.43
2022-11-25T06:15:16.685Z,2.50
2022-11-25T06:17:44.531Z,2.50
2022-11-25T06:20:12.713Z,3.43
2022-11-25T06:22:41.942Z,2.77
2022-11-25T06:25:10.433Z,3.13
2022-11-25T06:28:04.512Z,3.37
2022-11-25T06:30:26.282Z,3.27
2022-11-25T06:32:55.435Z,3.40
2022-11-25T06:35:23.324Z,3.33
2022-11-25T06:37:52.669Z,3.13
2022-11-25T06:40:20.593Z,3.70
2022-11-25T06:42:48.487Z,3.13
2022-11-25T06:45:16.547Z,4.00
2022-11-25T06:47:44.415Z,3.83
2022-11-25T06:50:12.402Z,3.77
2022-11-25T06:52:40.298Z,3.33
2022-11-25T06:55:10.272Z,2.50
2022-11-25T06:57:38.230Z,3.00
2022-11-25T07:00:07.855Z,2.97
2022-11-25T07:02:40.883Z,2.73
2022-11-25T07:05:10.968Z,1.97
2022-11-25T07:07:38.942Z,2.87
2022-11-25T07:10:09.745Z,1.90
2022-11-25T07:12:37.635Z,2.63
2022-11-25T07:15:06.498Z,2.60
2022-11-25T07:17:34.425Z,3.13
2022-11-25T07:20:02.294Z,2.43
2022-11-25T07:22:30.200Z,3.60
2022-11-25T07:24:58.095Z,3.33
2022-11-25T07:27:27.668Z,4.37
2022-11-25T07:30:29.105Z,2.77
2022-11-25T07:32:43.747Z,2.20
2022-11-25T07:35:11.620Z,3.70
2022-11-25T07:37:39.515Z,3.10
2022-11-25T07:40:08.608Z,2.10
2022-11-25T07:42:37.876Z,2.20
2022-11-25T07:45:06.565Z,3.10
2022-11-25T07:47:35.097Z,3.37
2022-11-25T07:50:02.985Z,3.63
2022-11-25T07:52:30.839Z,3.00
2022-11-25T07:54:58.783Z,4.40
2022-11-25T07:57:26.720Z,3.93
2022-11-25T07:59:55.975Z,3.83
2022-11-25T08:02:23.920Z,3.17
2022-11-25T08:04:52.159Z,3.83
2022-11-25T08:07:20.086Z,4.53
2022-11-25T08:09:47.953Z,4.00
2022-11-25T08:12:15.907Z,3.53
2022-11-25T08:14:43.794Z,2.70
2022-11-25T08:17:13.074Z,3.17
2022-11-25T08:19:41.403Z,4.60
2022-11-25T08:22:09.281Z,2.77
2022-11-25T08:24:37.132Z,3.57
2022-11-25T08:27:05.178Z,3.90
2022-11-25T08:29:33.151Z,3.43
2022-11-25T08:32:01.030Z,3.47
2022-11-25T08:34:30.296Z,3.60
2022-11-25T08:36:58.236Z,3.57
2022-11-25T08:39:51.059Z,3.63
2022-11-25T08:42:14.032Z,4.50
2022-11-25T08:44:42.140Z,3.87
2022-11-25T08:47:10.738Z,3.53
2022-11-25T08:49:41.716Z,3.30
2022-11-25T08:52:10.279Z,4.27
2022-11-25T08:54:38.381Z,3.20
2022-11-25T08:57:06.442Z,3.47
2022-11-25T08:59:34.528Z,3.57
2022-11-25T09:02:02.688Z,2.90
2022-11-25T09:04:30.609Z,3.50
2022-11-25T09:06:59.880Z,2.90
2022-11-25T09:09:27.973Z,3.50
2022-11-25T09:11:55.981Z,2.70
2022-11-25T09:14:23.920Z,3.73
2022-11-25T09:16:51.919Z,4.90
2022-11-25T09:19:20.912Z,3.40
2022-11-25T09:21:48.809Z,2.87
2022-11-25T09:24:18.099Z,3.00
2022-11-25T09:26:46.027Z,3.37
2022-11-25T09:29:14.227Z,3.30
2022-11-25T09:31:42.298Z,3.50
2022-11-25T09:34:10.750Z,2.93
2022-11-25T09:36:38.589Z,3.13
2022-11-25T09:39:06.610Z,3.57
2022-11-25T09:42:01.917Z,3.87
2022-11-25T09:44:55.932Z,3.60
2022-11-25T09:47:25.684Z,3.73
2022-11-25T09:50:01.496Z,3.70
2022-11-25T09:52:33.605Z,3.93
2022-11-25T09:55:05.720Z,4.10
2022-11-25T09:57:43.809Z,3.10
2022-11-25T10:00:13.735Z,2.67
2022-11-25T10:02:42.997Z,3.43
2022-11-25T10:05:14.090Z,2.97
2022-11-25T10:07:43.933Z,3.23
2022-11-25T10:10:17.067Z,3.30
2022-11-25T10:12:46.357Z,3.37
2022-11-25T10:15:16.862Z,3.10
2022-11-25T10:17:46.657Z,2.73
2022-11-25T10:20:16.332Z,2.77
2022-11-25T10:22:45.107Z,3.33
2022-11-25T10:25:15.492Z,3.27
2022-11-25T10:27:44.951Z,3.43
2022-11-25T10:30:18.200Z,3.67
2022-11-25T10:32:48.307Z,3.50
2022-11-25T10:35:21.823Z,2.80
2022-11-25T10:37:49.915Z,2.93
2022-11-25T10:40:18.088Z,3.60
2022-11-25T10:42:46.064Z,3.80
2022-11-25T10:45:15.493Z,3.60
2022-11-25T10:48:06.264Z,2.93
2022-11-25T10:50:35.351Z,2.97
2022-11-25T10:53:05.023Z,3.37
2022-11-25T10:55:33.975Z,3.20
2022-11-25T10:58:02.092Z,2.70
2022-11-25T11:00:33.163Z,3.03
2022-11-25T11:03:02.453Z,3.50
2022-11-25T11:05:31.307Z,3.70
2022-11-25T11:08:10.429Z,2.47
2022-11-25T11:10:38.325Z,3.27
2022-11-25T11:13:06.971Z,2.73
2022-11-25T11:15:47.120Z,2.60
2022-11-25T11:18:21.923Z,4.00
2022-11-25T11:20:50.702Z,2.90
2022-11-25T11:23:18.870Z,2.97
2022-11-25T11:25:56.682Z,3.37
2022-11-25T11:28:30.826Z,2.83
2022-11-25T11:31:01.534Z,3.03
2022-11-25T11:33:37.091Z,2.93
2022-11-25T11:36:12.738Z,2.83
2022-11-25T11:38:44.505Z,2.90
2022-11-25T11:41:16.119Z,3.33
2022-11-25T11:43:56.892Z,2.87
2022-11-25T11:46:33.915Z,2.53
2022-11-25T11:49:07.170Z,3.23
2022-11-25T11:51:37.938Z,3.40
2022-11-25T11:54:08.154Z,2.77
2022-11-25T11:56:39.192Z,3.03
2022-11-25T11:59:22.791Z,2.90
2022-11-25T12:02:04.135Z,2.83
2022-11-25T12:04:35.045Z,2.90
2022-11-25T12:07:06.213Z,2.47
2022-11-25T12:09:35.456Z,2.40
2022-11-25T12:12:05.580Z,1.97
2022-11-25T12:14:36.920Z,2.87
2022-11-25T12:17:08.642Z,3.30
2022-11-25T12:19:40.241Z,3.10
2022-11-25T12:22:09.810Z,3.00
2022-11-25T12:24:41.555Z,3.37
2022-11-25T12:27:11.689Z,2.73
2022-11-25T12:29:40.996Z,2.40
2022-11-25T12:32:24.109Z,3.50
2022-11-25T12:34:55.426Z,2.83
2022-11-25T12:37:28.602Z,2.83
2022-11-25T12:39:58.495Z,2.47
2022-11-25T12:42:26.415Z,2.30
2022-11-25T12:45:01.949Z,3.07
2022-11-25T12:47:31.262Z,2.67
2022-11-25T12:49:59.289Z,2.93
2022-11-25T12:52:52.775Z,2.93
2022-11-25T12:55:21.467Z,3.00
2022-11-25T12:58:10.500Z,2.63
2022-11-25T13:01:09.618Z,2.70
2022-11-25T13:04:01.750Z,2.67
2022-11-25T13:06:59.315Z,2.73
2022-11-25T13:09:42.062Z,2.53
2022-11-25T13:12:15.393Z,2.37
2022-11-25T13:15:05.807Z,3.23
2022-11-25T13:17:35.300Z,2.83
2022-11-25T13:20:49.041Z,3.80
2022-11-25T13:23:31.948Z,3.23
2022-11-25T13:26:48.799Z,2.53
2022-11-25T13:29:59.133Z,1.47
2022-11-25T13:32:40.618Z,2.00
2022-11-25T13:35:36.664Z,1.77
2022-11-25T13:38:49.059Z,2.17
2022-11-25T13:41:26.247Z,1.90
2022-11-25T13:44:01.611Z,2.33
2022-11-25T13:46:39.639Z,4.13
2022-11-25T13:49:08.127Z,7.73
2022-11-25T13:51:36.016Z,2.03
2022-11-25T13:54:05.753Z,2.05
2022-11-25T13:56:36.102Z,2.37
2022-11-25T13:59:37.492Z,2.20
2022-11-25T14:02:45.205Z,2.03
2022-11-25T14:05:33.502Z,2.43
2022-11-25T14:08:08.076Z,2.20
2022-11-25T14:10:45.715Z,1.70
2022-11-25T14:13:27.743Z,2.10
2022-11-25T14:16:07.196Z,2.47
2022-11-25T14:19:21.771Z,2.40
2022-11-25T14:21:45.608Z,2.20
2022-11-25T14:24:21.072Z,2.13
2022-11-25T14:26:52.569Z,2.70
2022-11-25T14:29:24.501Z,2.43
2022-11-25T14:31:55.862Z,2.40
2022-11-25T14:34:25.676Z,2.37
2022-11-25T14:36:55.242Z,2.60
2022-11-25T14:39:25.821Z,3.10
2022-11-25T14:41:57.550Z,2.27
2022-11-25T14:44:28.257Z,2.63
2022-11-25T14:46:56.885Z,2.57
2022-11-25T14:49:46.642Z,1.57
2022-11-25T14:52:17.677Z,1.73
2022-11-25T14:54:45.651Z,1.90
2022-11-25T14:57:13.577Z,2.80
2022-11-25T14:59:45.615Z,2.27
2022-11-25T15:02:24.660Z,2.83
2022-11-25T15:04:52.552Z,2.20
2022-11-25T15:07:26.309Z,2.80
2022-11-25T15:09:57.535Z,2.90
2022-11-25T15:12:25.430Z,3.13
2022-11-25T15:14:55.242Z,3.10
2022-11-25T15:17:26.903Z,3.33
2022-11-25T15:19:55.115Z,3.10
2022-11-25T15:22:24.458Z,2.77
2022-11-25T15:24:55.554Z,2.77
2022-11-25T15:27:26.213Z,3.07
2022-11-25T15:29:56.721Z,3.27
2022-11-25T15:32:26.392Z,3.97
2022-11-25T15:34:54.634Z,4.30
2022-11-25T15:37:24.050Z,4.60
2022-11-25T15:39:52.040Z,4.57
2022-11-25T15:42:21.317Z,3.70
2022-11-25T15:44:50.884Z,4.50
2022-11-25T15:47:24.366Z,3.77
2022-11-25T15:49:58.175Z,4.23
2022-11-25T15:52:26.138Z,4.13
2022-11-25T15:54:54.023Z,5.33
2022-11-25T15:57:24.105Z,4.53
2022-11-25T16:00:03.659Z,5.43
2022-11-25T16:02:34.899Z,6.47
2022-11-25T16:05:29.320Z,6.47
2022-11-25T16:08:19.001Z,6.93
2022-11-25T16:10:52.017Z,5.27
2022-11-25T16:13:29.201Z,5.13
2022-11-25T16:15:58.225Z,5.50
2022-11-25T16:18:40.428Z,7.47
2022-11-25T16:21:09.800Z,8.77
2022-11-25T16:23:38.791Z,7.43
2022-11-25T16:26:08.101Z,17.53
2022-11-25T16:28:35.946Z,7.60
2022-11-25T16:31:03.973Z,7.00
2022-11-25T16:33:33.217Z,4.33
2022-11-25T16:36:03.237Z,4.60
2022-11-25T16:38:34.537Z,4.00
2022-11-25T16:41:02.426Z,4.40
2022-11-25T16:43:30.303Z,3.70
2022-11-25T16:45:58.888Z,5.60
2022-11-25T16:48:26.906Z,3.93
2022-11-25T16:50:56.199Z,3.80
2022-11-25T16:53:24.174Z,4.37
2022-11-25T16:55:52.068Z,4.50
2022-11-25T16:58:20.848Z,4.60
2022-11-25T17:00:55.284Z,4.70
2022-11-25T17:03:26.127Z,3.27
2022-11-25T17:05:55.186Z,4.60
2022-11-25T17:08:24.473Z,6.23
2022-11-25T17:10:52.421Z,6.83
2022-11-25T17:13:21.844Z,10.37
2022-11-25T17:15:50.001Z,10.10
2022-11-25T17:18:19.229Z,8.70
2022-11-25T17:20:47.169Z,7.60
2022-11-25T17:23:16.387Z,6.53
2022-11-25T17:25:47.122Z,5.93
2022-11-25T17:28:16.120Z,5.77
2022-11-25T17:30:44.210Z,4.50
2022-11-25T17:33:14.581Z,4.93
2022-11-25T17:35:42.486Z,4.33
2022-11-25T17:38:13.178Z,4.40
2022-11-25T17:40:42.801Z,8.93
2022-11-25T17:43:14.318Z,7.03
2022-11-25T17:45:42.345Z,7.13
2022-11-25T17:48:11.615Z,7.70
2022-11-25T17:50:39.744Z,6.33
2022-11-25T17:53:07.682Z,6.70
2022-11-25T17:55:36.346Z,4.63
2022-11-25T17:58:04.283Z,5.00
2022-11-25T18:00:34.348Z,4.97
2022-11-25T18:03:02.453Z,4.77
2022-11-25T18:05:30.471Z,4.90
2022-11-25T18:07:58.456Z,4.03
2022-11-25T18:10:27.538Z,4.27
2022-11-25T18:12:56.128Z,4.53
2022-11-25T18:15:25.130Z,4.37
2022-11-25T18:17:57.224Z,4.50
2022-11-25T18:20:26.239Z,3.93
2022-11-25T18:22:54.202Z,3.27
2022-11-25T18:25:23.586Z,54.87
2022-11-25T18:27:54.142Z,86.70
2022-11-25T18:30:24.104Z,63.23
2022-11-25T18:32:52.026Z,32.87
2022-11-25T18:35:22.473Z,30.33
2022-11-25T18:37:51.070Z,40.03
2022-11-25T18:40:19.443Z,95.30
2022-11-25T18:42:49.607Z,42.47
2022-11-25T18:45:19.416Z,44.47
2022-11-25T18:47:47.874Z,12.43
2022-11-25T18:50:18.015Z,10.30
2022-11-25T18:52:47.367Z,35.00
2022-11-25T18:55:16.814Z,38.73
2022-11-25T18:57:45.797Z,13.73
2022-11-25T19:00:31.727Z,14.17
2022-11-25T19:03:01.224Z,14.47
2022-11-25T19:05:31.570Z,15.80
2022-11-25T19:08:01.123Z,9.70
2022-11-25T19:10:31.366Z,6.57
2022-11-25T19:13:02.405Z,6.20
2022-11-25T19:15:31.404Z,6.47
2022-11-25T19:18:01.083Z,5.43
2022-11-25T19:20:30.384Z,15.33
2022-11-25T19:23:01.324Z,6.70
2022-11-25T19:25:29.738Z,7.50
2022-11-25T19:27:58.942Z,5.80
2022-11-25T19:30:27.964Z,4.40
2022-11-25T19:32:56.676Z,10.03
2022-11-25T19:35:26.787Z,8.37
2022-11-25T19:37:54.691Z,16.27
2022-11-25T19:40:25.251Z,30.80
2022-11-25T19:42:53.199Z,11.43
2022-11-25T19:45:21.361Z,6.60
2022-11-25T19:47:50.849Z,4.67
2022-11-25T19:50:21.681Z,3.60
2022-11-25T19:52:49.941Z,4.17
2022-11-25T19:55:18.956Z,3.60
2022-11-25T19:57:48.465Z,13.63
2022-11-25T20:00:17.771Z,4.00
2022-11-25T20:02:45.938Z,3.87
2022-11-25T20:05:17.087Z,5.80
2022-11-25T20:07:45.178Z,5.93
2022-11-25T20:10:17.482Z,4.00
2022-11-25T20:12:45.464Z,4.57
2022-11-25T20:15:14.728Z,6.40
2022-11-25T20:17:44.497Z,4.47
2022-11-25T20:20:15.603Z,4.73
2022-11-25T20:22:45.036Z,4.60
2022-11-25T20:25:12.991Z,4.80
2022-11-25T20:27:41.560Z,9.20
2022-11-25T20:30:17.487Z,5.83
2022-11-25T20:32:45.427Z,4.97
2022-11-25T20:35:13.443Z,5.53
2022-11-25T20:37:51.107Z,6.20
2022-11-25T20:40:20.957Z,7.73
2022-11-25T20:42:49.772Z,14.80
2022-11-25T20:45:19.811Z,12.43
2022-11-25T20:47:49.082Z,8.03
2022-11-25T20:50:17.145Z,8.43
2022-11-25T20:52:45.050Z,6.37
2022-11-25T20:55:18.523Z,6.50
2022-11-25T20:57:46.449Z,6.57
2022-11-25T21:00:20.220Z,7.70
2022-11-25T21:02:48.821Z,6.03
2022-11-25T21:05:17.047Z,8.37
2022-11-25T21:07:44.976Z,9.77
2022-11-25T21:10:22.015Z,7.33
2022-11-25T21:12:49.945Z,7.10
2022-11-25T21:15:21.223Z,7.60
2022-11-25T21:17:49.579Z,7.77
2022-11-25T21:20:18.056Z,6.47
2022-11-25T21:22:47.245Z,7.17
2022-11-25T21:25:16.284Z,6.60
2022-11-25T21:27:44.291Z,5.47
2022-11-25T21:30:20.538Z,6.97
2022-11-25T21:32:48.571Z,6.87
2022-11-25T21:35:16.670Z,5.80
2022-11-25T21:37:44.788Z,5.40
2022-11-25T21:40:22.712Z,6.10
2022-11-25T21:42:50.599Z,5.43
2022-11-25T21:45:19.878Z,5.80
2022-11-25T21:47:47.803Z,4.40
2022-11-25T21:50:17.041Z,4.87
2022-11-25T21:52:44.948Z,4.07
2022-11-25T21:55:13.291Z,4.47
2022-11-25T21:57:41.326Z,3.97
2022-11-25T22:00:21.251Z,4.53
2022-11-25T22:02:49.793Z,4.80
2022-11-25T22:05:18.847Z,4.90
2022-11-25T22:07:46.860Z,5.93
2022-11-25T22:10:16.433Z,4.03
2022-11-25T22:12:45.165Z,4.27
2022-11-25T22:15:15.505Z,4.57
2022-11-25T22:17:45.037Z,5.20
2022-11-25T22:20:25.774Z,7.67
2022-11-25T22:22:53.748Z,14.67
2022-11-25T22:25:21.682Z,7.27
2022-11-25T22:27:51.080Z,6.53
2022-11-25T22:30:24.589Z,6.93
2022-11-25T22:32:59.569Z,6.27
2022-11-25T22:35:27.461Z,9.50
2022-11-25T22:37:55.719Z,6.97
2022-11-25T22:40:23.721Z,8.30
2022-11-25T22:42:51.740Z,7.13
2022-11-25T22:45:24.696Z,6.17
2022-11-25T22:47:52.660Z,8.23
2022-11-25T22:50:24.352Z,8.03
2022-11-25T22:52:52.317Z,7.80
2022-11-25T22:55:21.597Z,4.67
2022-11-25T22:57:49.727Z,4.17
2022-11-25T23:00:19.287Z,4.03
2022-11-25T23:02:47.452Z,3.90
2022-11-25T23:05:16.784Z,4.23
2022-11-25T23:07:46.206Z,4.27
2022-11-25T23:10:18.029Z,3.40
2022-11-25T23:12:45.964Z,3.40
2022-11-25T23:15:15.209Z,3.63
2022-11-25T23:17:45.705Z,3.33
2022-11-25T23:20:16.819Z,3.60
2022-11-25T23:22:46.411Z,3.33
2022-11-25T23:25:15.887Z,3.53
2022-11-25T23:27:44.048Z,2.73
2022-11-25T23:30:15.680Z,3.67
2022-11-25T23:32:43.662Z,3.67
2022-11-25T23:35:15.422Z,4.30
2022-11-25T23:37:45.023Z,3.43
2022-11-25T23:40:20.876Z,3.83
2022-11-25T23:42:48.798Z,4.20
2022-11-25T23:45:17.522Z,3.40
2022-11-25T23:47:46.103Z,3.87
2022-11-25T23:50:24.767Z,3.60
2022-11-25T23:52:55.720Z,4.37
2022-11-25T23:55:26.207Z,3.63
2022-11-25T23:57:54.110Z,3.60
